Time;durP1;ratioP1;P1;durP2;ratioP2;P2;SDS_P1;SDS_P2;PMS_P1;PMS_P2;Temp;Humidity;BMP_temperature;BMP_pressure;BME280_temperature;BME280_humidity;BME280_pressure;Samples;Min_cycle;Max_cycle;Signal;HPM_P1;HPM_P2
2022/09/11 00:01:54;;;;;;;8.38;5.80;;;18.00;99.90;;;;;;5052511;28;20041;-74
2022/09/11 00:04:20;;;;;;;9.50;6.38;;;18.00;99.90;;;;;;5068535;28;20031;-75
2022/09/11 00:06:45;;;;;;;9.90;6.20;;;17.90;99.90;;;;;;5060621;28;20041;-75
2022/09/11 00:09:11;;;;;;;8.25;5.68;;;17.90;99.90;;;;;;5058529;28;20048;-74
2022/09/11 00:11:39;;;;;;;11.85;6.07;;;17.80;99.90;;;;;;5069856;28;20021;-74
2022/09/11 00:14:06;;;;;;;8.73;5.53;;;17.80;99.90;;;;;;5052273;28;20052;-75
2022/09/11 00:16:40;;;;;;;9.60;6.28;;;17.90;99.90;;;;;;5052050;28;20032;-75
2022/09/11 00:19:18;;;;;;;8.50;6.05;;;17.90;99.90;;;;;;5054124;28;20518;-75
2022/09/11 00:21:44;;;;;;;;;;;17.90;99.90;;;;;;5061516;28;20432;-75
2022/09/11 00:24:10;;;;;;;9.38;6.00;;;17.90;99.90;;;;;;5058207;28;20299;-75
2022/09/11 00:26:36;;;;;;;11.38;6.60;;;18.00;99.90;;;;;;5068459;28;20434;-75
2022/09/11 00:29:03;;;;;;;10.40;6.97;;;17.80;99.90;;;;;;5034415;28;20459;-75
2022/09/11 00:31:31;;;;;;;10.85;6.75;;;17.70;99.90;;;;;;5069028;28;20081;-75
2022/09/11 00:33:56;;;;;;;8.60;6.57;;;17.80;99.90;;;;;;5058917;28;20040;-75
2022/09/11 00:36:30;;;;;;;10.38;7.07;;;17.80;99.90;;;;;;5059601;28;20028;-76
2022/09/11 00:38:57;;;;;;;7.57;6.43;;;17.80;99.90;;;;;;5067116;28;20021;-74
2022/09/11 00:41:26;;;;;;;11.10;6.95;;;17.80;99.90;;;;;;5033592;28;20021;-74
2022/09/11 00:43:55;;;;;;;12.77;7.22;;;17.80;99.90;;;;;;5071943;28;20351;-75
2022/09/11 00:46:23;;;;;;;10.98;7.70;;;17.80;99.90;;;;;;5055079;28;20497;-75
2022/09/11 00:48:49;;;;;;;;;;;17.80;99.90;;;;;;5063588;28;20025;-75
2022/09/11 00:51:22;;;;;;;14.93;8.88;;;17.70;99.90;;;;;;5063998;28;19935;-76
2022/09/11 00:53:49;;;;;;;10.75;7.88;;;17.70;99.90;;;;;;5054574;28;20037;-75
2022/09/11 00:56:15;;;;;;;11.80;8.68;;;17.60;99.90;;;;;;5071566;28;20089;-76
2022/09/11 00:58:45;;;;;;;14.35;8.35;;;17.60;99.90;;;;;;5053110;28;20032;-75
2022/09/11 01:01:13;;;;;;;11.30;7.28;;;17.60;99.90;;;;;;5055266;28;20495;-74
2022/09/11 01:03:40;;;;;;;11.85;8.63;;;17.60;99.90;;;;;;5029777;28;20436;-75
2022/09/11 01:06:06;;;;;;;12.90;9.00;;;17.60;99.90;;;;;;5030065;28;20434;-74
2022/09/11 01:08:32;;;;;;;11.10;8.38;;;17.60;99.90;;;;;;5030904;28;20113;-75
2022/09/11 01:11:00;;;;;;;13.95;9.15;;;17.40;99.90;;;;;;5031171;28;20104;-75
2022/09/11 01:13:59;;;;;;;12.40;8.90;;;17.50;99.90;;;;;;5030939;28;20246;-75
2022/09/11 01:16:42;;;;;;;13.27;8.90;;;17.50;99.90;;;;;;5030877;28;20331;-75
2022/09/11 01:19:23;;;;;;;12.27;8.38;;;17.60;99.90;;;;;;5030971;28;20030;-75
2022/09/11 01:22:30;;;;;;;12.15;9.25;;;17.50;99.90;;;;;;5030593;28;20064;-74
2022/09/11 01:25:22;;;;;;;15.90;9.77;;;17.50;99.90;;;;;;5029513;28;20430;-74
2022/09/11 01:27:50;;;;;;;14.20;9.57;;;17.60;99.90;;;;;;5029640;28;20034;-74
2022/09/11 01:30:21;;;;;;;14.35;9.75;;;17.50;99.90;;;;;;5030690;28;20034;-75
2022/09/11 01:33:19;;;;;;;16.17;10.02;;;17.50;99.90;;;;;;5030635;28;20029;-75
2022/09/11 01:35:53;;;;;;;17.48;11.52;;;17.40;99.90;;;;;;5030580;28;20048;-75
2022/09/11 01:38:41;;;;;;;18.30;11.20;;;17.40;99.90;;;;;;5030942;28;20460;-74
2022/09/11 01:41:26;;;;;;;18.65;10.65;;;17.50;99.90;;;;;;5030559;28;20038;-74
2022/09/11 01:44:05;;;;;;;17.67;11.13;;;17.50;99.90;;;;;;5030555;28;20080;-75
2022/09/11 01:46:37;;;;;;;17.23;12.77;;;17.40;99.90;;;;;;5030532;28;20033;-74
2022/09/11 01:49:10;;;;;;;17.67;12.32;;;17.30;99.90;;;;;;5030607;28;20349;-75
2022/09/11 01:51:38;;;;;;;17.25;13.35;;;17.40;99.90;;;;;;5030831;28;20026;-75
2022/09/11 01:54:10;;;;;;;19.67;13.77;;;17.40;99.90;;;;;;5030335;28;20038;-75
2022/09/11 01:56:43;;;;;;;21.83;14.82;;;17.40;99.90;;;;;;5030272;28;20462;-75
2022/09/11 01:59:13;;;;;;;24.80;16.08;;;17.40;99.90;;;;;;5030898;28;20029;-75
2022/09/11 02:01:42;;;;;;;22.20;16.02;;;17.10;99.90;;;;;;5032821;28;20041;-76
2022/09/11 02:04:15;;;;;;;22.70;15.10;;;17.20;99.90;;;;;;5065877;28;20421;-75
2022/09/11 02:07:06;;;;;;;28.55;17.05;;;17.30;99.90;;;;;;5050363;28;20072;-74
2022/09/11 02:09:46;;;;;;;26.83;16.83;;;17.30;99.90;;;;;;5050342;28;20128;-75
2022/09/11 02:12:16;;;;;;;26.13;17.23;;;17.30;99.90;;;;;;5049161;28;20044;-75
2022/09/11 02:14:46;;;;;;;26.60;18.02;;;17.40;99.90;;;;;;5048919;28;20459;-75
2022/09/11 02:17:42;;;;;;;34.45;18.42;;;17.40;99.90;;;;;;5050582;28;20347;-75
2022/09/11 02:20:09;;;;;;;33.95;19.15;;;17.40;99.90;;;;;;5050268;28;20379;-75
2022/09/11 02:22:35;;;;;;;26.98;17.95;;;17.40;99.90;;;;;;5052235;28;20033;-75
2022/09/11 02:25:02;;;;;;;32.55;19.02;;;17.40;99.90;;;;;;5069705;28;20328;-75
2022/09/11 02:27:30;;;;;;;27.17;18.13;;;17.30;99.90;;;;;;5053994;28;20037;-75
2022/09/11 02:29:57;;;;;;;27.08;17.35;;;17.20;99.90;;;;;;5053928;28;20420;-75
2022/09/11 02:32:25;;;;;;;29.67;17.85;;;17.30;99.90;;;;;;5054367;28;20104;-75
2022/09/11 02:34:54;;;;;;;31.67;18.80;;;17.20;99.90;;;;;;5052919;28;20069;-75
2022/09/11 02:37:44;;;;;;;28.65;17.88;;;17.10;99.90;;;;;;5053940;28;20380;-75
2022/09/11 02:40:15;;;;;;;29.33;18.58;;;17.10;99.90;;;;;;5053754;28;20025;-74
2022/09/11 02:43:00;;;;;;;31.20;18.55;;;17.00;99.90;;;;;;5052649;28;20044;-75
2022/09/11 02:45:40;;;;;;;28.40;19.05;;;17.00;99.90;;;;;;5053590;28;20059;-74
2022/09/11 02:48:14;;;;;;;33.40;19.73;;;17.00;99.90;;;;;;5052554;28;20374;-74
2022/09/11 02:50:49;;;;;;;34.90;18.40;;;17.10;99.90;;;;;;5053479;28;20479;-75
2022/09/11 02:53:33;;;;;;;31.02;20.05;;;17.20;99.90;;;;;;5053932;28;20064;-75
2022/09/11 02:56:16;;;;;;;36.75;20.02;;;17.20;99.90;;;;;;5053527;28;20045;-75
2022/09/11 02:58:57;;;;;;;33.13;20.45;;;17.20;99.90;;;;;;5069130;28;20557;-75
2022/09/11 03:01:23;;;;;;;35.80;20.58;;;17.30;99.90;;;;;;5053025;28;20025;-76
2022/09/11 03:03:49;;;;;;;37.67;20.38;;;17.20;99.90;;;;;;5053280;28;20052;-74
2022/09/11 03:06:19;;;;;;;29.92;18.67;;;17.20;99.90;;;;;;5053150;28;20052;-75
2022/09/11 03:08:45;;;;;;;30.83;19.27;;;17.20;99.90;;;;;;5068891;28;20029;-75
2022/09/11 03:11:12;;;;;;;28.20;17.23;;;17.00;99.90;;;;;;5053730;28;20095;-75
2022/09/11 03:13:38;;;;;;;28.97;17.13;;;17.10;99.90;;;;;;5052254;28;20041;-74
2022/09/11 03:16:07;;;;;;;27.30;17.05;;;17.20;99.90;;;;;;5053221;28;20250;-74
2022/09/11 03:18:33;;;;;;;26.75;17.50;;;17.10;99.90;;;;;;5052085;28;20538;-74
2022/09/11 03:20:59;;;;;;;31.38;18.40;;;17.00;99.90;;;;;;5052897;28;20358;-75
2022/09/11 03:23:25;;;;;;;24.80;16.75;;;17.00;99.90;;;;;;5052838;28;20025;-75
2022/09/11 03:25:51;;;;;;;26.77;17.92;;;17.00;99.90;;;;;;5053353;28;20021;-74
2022/09/11 03:28:17;;;;;;;29.38;18.25;;;17.00;99.90;;;;;;5052959;28;20487;-73
2022/09/11 03:30:43;;;;;;;28.50;17.70;;;17.00;99.90;;;;;;5052750;28;20032;-74
2022/09/11 03:33:08;;;;;;;27.05;17.52;;;17.00;99.90;;;;;;5052576;28;20466;-74
2022/09/11 03:35:35;;;;;;;27.35;17.67;;;17.10;99.90;;;;;;5068548;28;20406;-75
2022/09/11 03:38:00;;;;;;;27.30;17.40;;;17.00;99.90;;;;;;5068765;28;20025;-75
2022/09/11 03:40:26;;;;;;;28.80;18.15;;;17.10;99.90;;;;;;5067998;28;20103;-75
2022/09/11 03:42:52;;;;;;;27.30;16.95;;;17.00;99.90;;;;;;5052473;28;20520;-74
2022/09/11 03:45:18;;;;;;;26.02;17.05;;;17.00;99.90;;;;;;5052468;28;20057;-75
2022/09/11 03:47:44;;;;;;;29.17;19.45;;;17.00;99.90;;;;;;5052539;28;20139;-75
2022/09/11 03:50:11;;;;;;;26.08;16.60;;;17.00;99.90;;;;;;5068603;28;20467;-74
2022/09/11 03:52:36;;;;;;;26.65;17.25;;;17.00;99.90;;;;;;5052976;28;20033;-74
2022/09/11 03:55:03;;;;;;;27.73;16.80;;;16.90;99.90;;;;;;5053465;28;20041;-74
2022/09/11 03:57:32;;;;;;;29.17;17.13;;;16.80;99.90;;;;;;5056557;28;20060;-74
2022/09/11 04:00:00;;;;;;;28.10;16.58;;;16.80;99.90;;;;;;5052134;28;20033;-75
2022/09/11 04:02:26;;;;;;;25.67;16.38;;;16.70;99.90;;;;;;5052139;28;20120;-74
2022/09/11 04:04:51;;;;;;;28.02;17.13;;;16.70;99.90;;;;;;5068104;28;20115;-74
2022/09/11 04:07:17;;;;;;;27.73;15.65;;;16.70;99.90;;;;;;5052045;28;20049;-74
2022/09/11 04:09:43;;;;;;;26.20;15.57;;;16.70;99.90;;;;;;5051196;28;20033;-73
2022/09/11 04:12:10;;;;;;;25.92;15.20;;;16.80;99.90;;;;;;5051914;28;20371;-74
2022/09/11 04:14:35;;;;;;;25.92;15.85;;;16.90;99.90;;;;;;5052260;28;20025;-74
2022/09/11 04:17:01;;;;;;;24.25;14.18;;;16.90;99.90;;;;;;5068548;28;20409;-74
2022/09/11 04:19:28;;;;;;;25.58;15.93;;;17.00;99.90;;;;;;5052423;28;20036;-75
2022/09/11 04:21:54;;;;;;;26.20;15.27;;;17.00;99.90;;;;;;5052871;28;20110;-74
2022/09/11 04:24:19;;;;;;;25.83;15.05;;;17.00;99.90;;;;;;5052921;28;20053;-73
2022/09/11 04:26:45;;;;;;;27.90;16.50;;;17.00;99.90;;;;;;5052284;28;20128;-74
2022/09/11 04:29:11;;;;;;;25.27;14.57;;;17.00;99.90;;;;;;5052981;28;20031;-74
2022/09/11 04:31:38;;;;;;;27.17;15.75;;;17.00;99.90;;;;;;5067591;28;20033;-74
2022/09/11 04:34:05;;;;;;;27.00;16.05;;;16.90;99.90;;;;;;5051846;28;20036;-75
2022/09/11 04:36:31;;;;;;;27.15;16.13;;;16.80;99.90;;;;;;5052955;28;20036;-75
2022/09/11 04:38:58;;;;;;;28.67;17.60;;;16.80;99.90;;;;;;5053816;28;20136;-74
2022/09/11 04:41:25;;;;;;;29.50;16.92;;;16.70;99.90;;;;;;5055992;28;20032;-74
2022/09/11 04:43:56;;;;;;;32.42;18.27;;;16.80;99.90;;;;;;5056373;28;20017;-74
2022/09/11 04:46:23;;;;;;;31.83;18.40;;;16.70;99.90;;;;;;5053530;28;20098;-73
2022/09/11 04:48:52;;;;;;;32.72;19.75;;;16.60;99.90;;;;;;5053869;28;20364;-74
2022/09/11 04:51:26;;;;;;;35.17;19.83;;;16.50;99.90;;;;;;5052122;28;20060;-74
2022/09/11 04:53:56;;;;;;;34.92;19.55;;;16.60;99.90;;;;;;5055086;28;20037;-75
2022/09/11 04:56:24;;;;;;;36.67;19.52;;;16.60;99.90;;;;;;5053484;28;20412;-74
2022/09/11 04:58:55;;;;;;;37.58;18.98;;;16.70;99.90;;;;;;5052215;28;20048;-76
2022/09/11 05:01:21;;;;;;;37.83;20.05;;;16.70;99.90;;;;;;5051350;28;20029;-75
2022/09/11 05:03:47;;;;;;;36.53;20.42;;;16.80;99.90;;;;;;5052577;28;20040;-73
2022/09/11 05:06:15;;;;;;;32.45;18.13;;;16.70;99.90;;;;;;5051365;28;20041;-75
2022/09/11 05:08:46;;;;;;;31.85;16.90;;;16.80;99.90;;;;;;5051202;28;20025;-75
2022/09/11 05:11:13;;;;;;;34.67;17.63;;;16.80;99.90;;;;;;5050916;28;20060;-76
2022/09/11 05:13:40;;;;;;;34.63;16.90;;;16.90;99.90;;;;;;5051000;28;20029;-74
2022/09/11 05:16:11;;;;;;;29.83;15.20;;;16.90;99.90;;;;;;5051137;28;20353;-73
2022/09/11 05:18:38;;;;;;;33.72;16.08;;;16.90;99.90;;;;;;5052735;28;20029;-73
2022/09/11 05:21:07;;;;;;;33.95;16.17;;;16.90;99.90;;;;;;5052671;28;20033;-74
2022/09/11 05:23:33;;;;;;;34.22;15.95;;;16.80;99.90;;;;;;5067359;28;20025;-74
2022/09/11 05:26:00;;;;;;;31.35;16.52;;;16.90;99.90;;;;;;5051327;28;20047;-74
2022/09/11 05:28:28;;;;;;;32.97;16.35;;;16.90;99.90;;;;;;5066617;28;20045;-74
2022/09/11 05:30:54;;;;;;;35.60;17.67;;;16.80;99.90;;;;;;5052948;28;20039;-73
2022/09/11 05:33:24;;;;;;;35.53;17.60;;;16.80;99.90;;;;;;5069508;28;20423;-74
2022/09/11 05:35:52;;;;;;;38.03;16.80;;;16.80;99.90;;;;;;5052803;28;20044;-76
2022/09/11 05:38:19;;;;;;;36.63;16.92;;;16.70;99.90;;;;;;5051360;28;20446;-74
2022/09/11 05:40:49;;;;;;;36.90;16.77;;;16.80;99.90;;;;;;5051199;28;20033;-74
2022/09/11 05:43:16;;;;;;;32.45;15.18;;;16.80;99.90;;;;;;5051084;28;20044;-74
2022/09/11 05:45:43;;;;;;;37.95;17.17;;;16.80;99.90;;;;;;5066666;28;20044;-74
2022/09/11 05:48:09;;;;;;;38.30;18.17;;;16.80;99.90;;;;;;5050929;28;20110;-74
2022/09/11 05:50:35;;;;;;;36.38;16.13;;;16.70;99.90;;;;;;5050437;28;20061;-73
2022/09/11 05:53:01;;;;;;;37.13;16.90;;;16.70;99.90;;;;;;5050779;28;20013;-74
2022/09/11 05:55:27;;;;;;;39.70;17.45;;;16.70;99.90;;;;;;5050559;28;20063;-74
2022/09/11 05:57:53;;;;;;;31.58;15.88;;;16.70;99.90;;;;;;5052986;28;20112;-74
2022/09/11 06:00:20;;;;;;;42.53;18.08;;;16.80;99.90;;;;;;5054601;28;20164;-74
2022/09/11 06:02:47;;;;;;;36.85;17.63;;;16.80;99.90;;;;;;5054466;28;20061;-74
2022/09/11 06:05:14;;;;;;;38.83;17.67;;;16.90;99.90;;;;;;5053683;28;20053;-74
2022/09/11 06:07:40;;;;;;;40.53;18.38;;;16.90;99.90;;;;;;5070000;28;20029;-75
2022/09/11 06:10:07;;;;;;;36.95;16.45;;;16.90;99.90;;;;;;5054288;28;20543;-73
2022/09/11 06:12:33;;;;;;;34.20;17.00;;;16.90;99.90;;;;;;5054333;28;20033;-74
2022/09/11 06:14:59;;;;;;;35.83;17.77;;;16.90;99.90;;;;;;5054570;28;20033;-74
2022/09/11 06:17:25;;;;;;;36.95;19.20;;;17.00;99.90;;;;;;5054375;28;20033;-74
2022/09/11 06:19:50;;;;;;;36.42;18.45;;;17.00;99.90;;;;;;5054530;28;20180;-74
2022/09/11 06:22:16;;;;;;;45.60;19.35;;;16.90;99.90;;;;;;5054016;28;20480;-74
2022/09/11 06:24:42;;;;;;;41.45;19.90;;;17.00;99.90;;;;;;5052930;28;20031;-74
2022/09/11 06:27:07;;;;;;;39.88;18.92;;;17.00;99.90;;;;;;5053816;28;20436;-74
2022/09/11 06:29:33;;;;;;;46.15;22.27;;;17.00;99.90;;;;;;5053878;28;20507;-74
2022/09/11 06:31:59;;;;;;;42.63;21.50;;;17.00;99.90;;;;;;5054225;28;20044;-75
2022/09/11 06:34:25;;;;;;;45.17;22.67;;;17.00;99.90;;;;;;5054069;28;20056;-75
2022/09/11 06:36:51;;;;;;;44.13;22.50;;;17.10;99.90;;;;;;5053903;28;20103;-74
2022/09/11 06:39:19;;;;;;;41.40;22.90;;;17.10;99.90;;;;;;5053906;28;20275;-75
2022/09/11 06:41:45;;;;;;;43.35;22.77;;;17.00;99.90;;;;;;5053796;28;20215;-75
2022/09/11 06:44:11;;;;;;;42.95;23.60;;;17.00;99.90;;;;;;5054435;28;20033;-74
2022/09/11 06:46:38;;;;;;;44.42;23.88;;;17.10;99.90;;;;;;5053829;28;20352;-75
2022/09/11 06:49:05;;;;;;;44.58;23.00;;;17.00;99.90;;;;;;5052641;28;20033;-75
2022/09/11 06:51:31;;;;;;;42.00;21.60;;;17.10;99.90;;;;;;5053814;28;20083;-75
2022/09/11 06:53:58;;;;;;;45.08;23.90;;;17.10;99.90;;;;;;5053632;28;20363;-75
2022/09/11 06:56:23;;;;;;;45.17;23.63;;;17.20;99.90;;;;;;5052464;28;20068;-75
2022/09/11 06:58:49;;;;;;;43.08;22.98;;;17.20;99.90;;;;;;5054096;28;20021;-75
2022/09/11 07:01:17;;;;;;;43.85;23.20;;;17.20;99.90;;;;;;5053734;28;20456;-75
2022/09/11 07:03:44;;;;;;;;;;;17.30;99.90;;;;;;5053908;28;20037;-75
2022/09/11 07:06:10;;;;;;;39.92;20.88;;;17.30;99.90;;;;;;5053648;28;20113;-75
2022/09/11 07:08:35;;;;;;;40.10;21.80;;;17.30;99.90;;;;;;5053111;28;20124;-74
2022/09/11 07:11:05;;;;;;;42.10;23.27;;;17.30;99.90;;;;;;5053917;28;20025;-74
2022/09/11 07:13:33;;;;;;;41.83;22.60;;;17.30;99.90;;;;;;5053721;28;20033;-74
2022/09/11 07:16:01;;;;;;;39.00;22.05;;;17.30;99.90;;;;;;5053502;28;20025;-74
2022/09/11 07:18:34;;;;;;;41.72;22.20;;;17.40;99.90;;;;;;5053297;28;20029;-73
2022/09/11 07:21:04;;;;;;;42.45;22.88;;;17.40;99.90;;;;;;5052304;28;20029;-73
2022/09/11 07:23:30;;;;;;;40.63;22.67;;;17.40;99.90;;;;;;5052252;28;20086;-74
2022/09/11 07:25:55;;;;;;;43.05;23.45;;;17.40;99.90;;;;;;5053487;28;20032;-75
2022/09/11 07:28:21;;;;;;;42.17;22.35;;;17.40;99.90;;;;;;5053029;28;20033;-75
2022/09/11 07:30:47;;;;;;;46.40;23.85;;;17.40;99.90;;;;;;5053067;28;20363;-75
2022/09/11 07:33:13;;;;;;;46.40;24.92;;;17.40;99.90;;;;;;5053146;28;20029;-74
2022/09/11 07:35:38;;;;;;;44.65;24.63;;;17.30;99.90;;;;;;5052851;28;20358;-74
2022/09/11 07:38:04;;;;;;;43.00;24.45;;;17.30;99.90;;;;;;5053182;28;20079;-74
2022/09/11 07:40:30;;;;;;;43.30;24.10;;;17.40;99.90;;;;;;5052745;28;20329;-74
2022/09/11 07:42:55;;;;;;;43.50;23.83;;;17.50;99.90;;;;;;5052764;28;20119;-75
2022/09/11 07:45:21;;;;;;;49.05;25.35;;;17.50;99.90;;;;;;5068496;28;20033;-75
2022/09/11 07:47:47;;;;;;;44.42;23.70;;;17.40;99.90;;;;;;5068315;28;20036;-75
2022/09/11 07:50:12;;;;;;;49.75;26.13;;;17.30;99.90;;;;;;5052981;28;20459;-75
2022/09/11 07:52:38;;;;;;;44.63;23.42;;;17.40;99.90;;;;;;5052632;28;20067;-75
2022/09/11 07:55:04;;;;;;;46.50;24.95;;;17.40;99.90;;;;;;5052466;28;20133;-74
2022/09/11 07:57:31;;;;;;;39.83;24.25;;;17.50;99.90;;;;;;5052406;28;20044;-74
2022/09/11 07:59:56;;;;;;;46.58;24.52;;;17.50;99.90;;;;;;5067919;28;20094;-75
2022/09/11 08:02:22;;;;;;;42.70;24.48;;;17.60;99.90;;;;;;5052722;28;20133;-75
2022/09/11 08:04:48;;;;;;;44.70;24.48;;;17.60;99.90;;;;;;5052413;28;20478;-75
2022/09/11 08:07:15;;;;;;;48.60;24.77;;;17.50;99.90;;;;;;5052369;28;20037;-75
2022/09/11 08:09:40;;;;;;;48.67;26.15;;;17.70;99.90;;;;;;5051059;28;20041;-75
2022/09/11 08:12:06;;;;;;;45.75;25.88;;;17.70;99.90;;;;;;5052176;28;20044;-75
2022/09/11 08:14:32;;;;;;;44.45;26.02;;;17.70;99.90;;;;;;5052177;28;20094;-75
2022/09/11 08:16:57;;;;;;;53.40;25.50;;;17.70;99.90;;;;;;5052644;28;20025;-74
2022/09/11 08:19:23;;;;;;;42.95;23.95;;;17.50;99.90;;;;;;5050200;28;20528;-74
2022/09/11 08:21:49;;;;;;;39.88;22.52;;;17.70;99.90;;;;;;5051901;28;20033;-74
2022/09/11 08:24:16;;;;;;;36.70;21.20;;;17.80;99.90;;;;;;5051839;28;20063;-75
2022/09/11 08:26:42;;;;;;;40.22;22.23;;;17.80;99.90;;;;;;5050842;28;20075;-75
2022/09/11 08:29:08;;;;;;;40.33;22.90;;;17.90;99.90;;;;;;5051361;28;20397;-74
2022/09/11 08:31:34;;;;;;;43.58;23.00;;;17.90;99.90;;;;;;5067671;28;20025;-75
2022/09/11 08:34:00;;;;;;;42.45;22.08;;;18.00;99.90;;;;;;5051870;28;20090;-74
2022/09/11 08:36:27;;;;;;;47.40;22.63;;;18.00;99.90;;;;;;5051938;28;20037;-75
2022/09/11 08:38:53;;;;;;;40.97;22.77;;;18.00;99.90;;;;;;5052094;28;20029;-74
2022/09/11 08:41:48;;;;;;;41.17;22.30;;;17.90;99.90;;;;;;5051856;28;20367;-75
2022/09/11 08:44:27;;;;;;;40.65;22.80;;;18.00;99.90;;;;;;5046200;28;20064;-75
2022/09/11 08:46:56;;;;;;;44.03;23.83;;;18.10;99.90;;;;;;5051729;28;20367;-75
2022/09/11 08:49:31;;;;;;;39.47;22.88;;;18.20;99.90;;;;;;5051665;28;20115;-75
2022/09/11 08:52:00;;;;;;;39.17;20.02;;;18.30;99.90;;;;;;5051744;28;20036;-74
2022/09/11 08:54:30;;;;;;;34.70;21.17;;;18.30;99.90;;;;;;5051428;28;20377;-73
2022/09/11 08:57:32;;;;;;;38.05;20.95;;;18.40;99.90;;;;;;5050367;28;20053;-75
2022/09/11 09:00:13;;;;;;;33.33;19.88;;;18.50;99.90;;;;;;5051403;28;20044;-75
2022/09/11 09:03:14;;;;;;;38.00;19.40;;;18.50;99.90;;;;;;5051317;28;20416;-75
2022/09/11 09:05:57;;;;;;;38.15;20.13;;;18.50;99.90;;;;;;5051170;28;20033;-75
2022/09/11 09:08:52;;;;;;;35.63;20.05;;;18.50;99.90;;;;;;5051291;28;20102;-75
2022/09/11 09:11:46;;;;;;;32.17;18.80;;;18.50;99.90;;;;;;5051565;28;20031;-75
2022/09/11 09:14:38;;;;;;;32.60;19.05;;;18.50;99.90;;;;;;5051559;28;20383;-75
2022/09/11 09:17:24;;;;;;;30.25;17.33;;;18.50;99.90;;;;;;5050127;28;20037;-74
2022/09/11 09:20:11;;;;;;;28.42;17.23;;;18.50;99.90;;;;;;5051150;28;20033;-75
2022/09/11 09:22:58;;;;;;;35.45;18.05;;;18.50;99.90;;;;;;5050945;28;20025;-74
2022/09/11 09:25:25;;;;;;;31.25;17.70;;;18.50;99.90;;;;;;5050948;28;20037;-74
2022/09/11 09:28:18;;;;;;;31.02;15.85;;;18.60;99.90;;;;;;5050720;28;20439;-74
2022/09/11 09:30:52;;;;;;;28.17;15.75;;;18.50;99.90;;;;;;5040639;28;20045;-75
2022/09/11 09:33:37;;;;;;;28.77;15.45;;;18.60;99.90;;;;;;5050711;28;20044;-74
2022/09/11 09:36:13;;;;;;;26.70;15.13;;;18.60;99.90;;;;;;5050835;28;20029;-75
2022/09/11 09:38:38;;;;;;;26.88;15.52;;;18.60;99.90;;;;;;5050797;28;20025;-74
2022/09/11 09:41:32;;;;;;;25.85;14.95;;;18.70;99.90;;;;;;5051152;28;20071;-74
2022/09/11 09:44:07;;;;;;;25.25;14.75;;;18.70;99.90;;;;;;5049849;28;20282;-74
2022/09/11 09:46:47;;;;;;;27.50;15.57;;;18.70;99.90;;;;;;5050727;28;20037;-74
2022/09/11 09:49:24;;;;;;;26.52;15.70;;;18.80;99.90;;;;;;5066398;28;20037;-74
2022/09/11 09:51:53;;;;;;;25.25;14.88;;;18.70;99.90;;;;;;5050733;28;20063;-74
2022/09/11 09:54:22;;;;;;;22.13;13.57;;;18.90;99.90;;;;;;5050378;28;20037;-73
2022/09/11 09:57:04;;;;;;;24.77;13.50;;;18.90;99.90;;;;;;5050531;28;20037;-73
2022/09/11 09:59:40;;;;;;;21.83;13.10;;;19.00;99.90;;;;;;5050510;28;20342;-75
2022/09/11 10:02:06;;;;;;;24.17;12.02;;;19.00;99.90;;;;;;5050933;28;20053;-74
2022/09/11 10:04:32;;;;;;;20.85;11.50;;;19.10;99.90;;;;;;5050524;28;20033;-75
2022/09/11 10:07:12;;;;;;;21.25;11.77;;;19.10;99.90;;;;;;5050707;28;20040;-75
2022/09/11 10:09:51;;;;;;;24.13;12.80;;;19.10;99.90;;;;;;5050344;28;20048;-75
2022/09/11 10:12:25;;;;;;;22.02;12.43;;;19.10;99.90;;;;;;5065921;28;20033;-74
2022/09/11 10:14:56;;;;;;;23.08;13.13;;;19.20;99.90;;;;;;5049407;28;20037;-74
2022/09/11 10:17:30;;;;;;;19.15;12.40;;;19.10;99.90;;;;;;5050863;28;20017;-75
2022/09/11 10:20:24;;;;;;;21.77;12.57;;;19.10;99.90;;;;;;5050944;28;20105;-75
2022/09/11 10:22:51;;;;;;;20.55;12.18;;;19.10;99.90;;;;;;5050392;28;20048;-75
2022/09/11 10:25:26;;;;;;;24.58;12.13;;;19.10;99.90;;;;;;5050318;28;20040;-76
2022/09/11 10:27:55;;;;;;;20.27;11.30;;;19.10;99.90;;;;;;5050505;28;20040;-75
2022/09/11 10:30:23;;;;;;;22.23;11.80;;;19.30;99.90;;;;;;5049327;28;20063;-75
2022/09/11 10:32:49;;;;;;;21.13;11.98;;;19.40;99.90;;;;;;5050506;28;20060;-74
2022/09/11 10:35:16;;;;;;;23.92;12.40;;;19.40;99.90;;;;;;5066417;28;20060;-75
2022/09/11 10:37:42;;;;;;;24.60;12.52;;;19.40;99.90;;;;;;5050719;28;20029;-75
2022/09/11 10:40:21;;;;;;;24.05;12.93;;;19.30;99.90;;;;;;5050265;28;20451;-74
2022/09/11 10:42:49;;;;;;;21.40;11.98;;;19.30;99.90;;;;;;5049496;28;20040;-75
2022/09/11 10:45:17;;;;;;;21.77;11.90;;;19.30;99.90;;;;;;5054197;28;20114;-75
2022/09/11 10:47:44;;;;;;;29.45;13.32;;;19.20;99.90;;;;;;5052965;28;20020;-74
2022/09/11 10:50:20;;;;;;;24.17;13.02;;;19.20;99.90;;;;;;5054393;28;20031;-74
2022/09/11 10:53:14;;;;;;;22.13;11.90;;;19.20;99.90;;;;;;5054015;28;20049;-75
2022/09/11 10:55:47;;;;;;;19.70;11.02;;;19.30;99.90;;;;;;5069234;28;20541;-76
2022/09/11 10:58:17;;;;;;;26.02;11.63;;;19.40;99.90;;;;;;5053706;28;20067;-74
2022/09/11 11:00:43;;;;;;;20.27;11.25;;;19.30;99.80;;;;;;5053628;28;20036;-74
2022/09/11 11:03:11;;;;;;;22.80;11.98;;;19.30;99.90;;;;;;5069131;28;20041;-74
2022/09/11 11:05:51;;;;;;;22.73;12.40;;;19.30;99.80;;;;;;5052712;28;20135;-74
2022/09/11 11:08:17;;;;;;;20.63;11.90;;;19.20;99.90;;;;;;5053034;28;20028;-75
2022/09/11 11:11:23;;;;;;;19.63;12.07;;;19.30;99.90;;;;;;5053456;28;20025;-75
2022/09/11 11:13:55;;;;;;;20.38;11.50;;;19.40;99.90;;;;;;5052659;28;20039;-75
2022/09/11 11:16:54;;;;;;;18.45;10.85;;;19.50;99.90;;;;;;5052555;28;20064;-74
2022/09/11 11:19:51;;;;;;;17.88;10.02;;;19.40;99.70;;;;;;5053447;28;20033;-74
2022/09/11 11:22:35;;;;;;;20.20;10.60;;;19.50;99.80;;;;;;5053125;28;20029;-74
2022/09/11 11:25:07;;;;;;;24.67;12.73;;;19.50;99.70;;;;;;5053569;28;20040;-73
2022/09/11 11:27:38;;;;;;;17.15;8.98;;;19.50;99.60;;;;;;5053147;28;20041;-74
2022/09/11 11:30:31;;;;;;;21.65;9.35;;;19.70;99.20;;;;;;5053178;28;20501;-75
2022/09/11 11:33:17;;;;;;;16.25;8.90;;;19.80;98.90;;;;;;5053077;28;20128;-74
2022/09/11 11:35:58;;;;;;;14.75;7.97;;;19.90;98.30;;;;;;5053055;28;20491;-75
2022/09/11 11:38:45;;;;;;;15.20;7.82;;;20.00;98.60;;;;;;5052756;28;20510;-74
2022/09/11 11:41:18;;;;;;;17.20;9.13;;;20.20;98.70;;;;;;5053166;28;20079;-76
2022/09/11 11:43:47;;;;;;;15.93;8.20;;;20.40;98.50;;;;;;5051630;28;20036;-75
2022/09/11 11:46:19;;;;;;;16.05;7.63;;;20.40;98.20;;;;;;5052509;28;20047;-74
2022/09/11 11:48:50;;;;;;;11.50;6.97;;;20.20;98.30;;;;;;5052495;28;20060;-74
2022/09/11 11:51:24;;;;;;;13.38;6.90;;;20.30;98.20;;;;;;5051603;28;20099;-75
2022/09/11 11:53:49;;;;;;;11.98;6.88;;;20.20;97.90;;;;;;5051906;28;20072;-75
2022/09/11 11:56:40;;;;;;;8.68;4.88;;;20.00;97.90;;;;;;5052654;28;20419;-75
2022/09/11 11:59:35;;;;;;;8.82;4.82;;;19.90;97.80;;;;;;5053025;28;20079;-75
2022/09/11 12:02:10;;;;;;;11.07;5.60;;;19.80;97.90;;;;;;5052514;28;20105;-75
2022/09/11 12:04:42;;;;;;;10.32;5.90;;;19.90;98.20;;;;;;5051233;28;20033;-74
2022/09/11 12:07:38;;;;;;;8.27;5.15;;;19.90;98.20;;;;;;5052399;28;20033;-75
2022/09/11 12:10:06;;;;;;;13.75;5.35;;;19.90;98.30;;;;;;5039559;28;20402;-76
2022/09/11 12:12:46;;;;;;;8.90;4.40;;;20.00;98.30;;;;;;5050967;28;20108;-75
2022/09/11 12:15:19;;;;;;;9.40;4.82;;;20.10;98.30;;;;;;5050999;28;20025;-75
2022/09/11 12:17:58;;;;;;;12.88;4.53;;;20.20;97.80;;;;;;5052214;28;20036;-76
2022/09/11 12:20:35;;;;;;;8.35;3.72;;;20.40;97.60;;;;;;5052228;28;20013;-73
2022/09/11 12:23:01;;;;;;;8.38;3.08;;;20.50;97.20;;;;;;5051246;28;20025;-75
2022/09/11 12:25:34;;;;;;;3.60;2.67;;;20.60;96.70;;;;;;5051919;28;20024;-74
2022/09/11 12:28:23;;;;;;;4.20;3.15;;;20.70;96.20;;;;;;5052210;28;20044;-74
2022/09/11 12:31:11;;;;;;;4.55;2.80;;;20.80;95.80;;;;;;5051787;28;20040;-74
2022/09/11 12:33:40;;;;;;;7.47;2.60;;;20.90;95.50;;;;;;5051806;28;20112;-74
2022/09/11 12:36:18;;;;;;;4.95;2.75;;;20.90;95.00;;;;;;5050520;28;20036;-75
2022/09/11 12:39:28;;;;;;;6.05;2.45;;;20.80;95.10;;;;;;5051862;28;20036;-75
2022/09/11 12:42:21;;;;;;;3.10;2.05;;;21.00;95.00;;;;;;5044976;28;20112;-74
2022/09/11 12:44:47;;;;;;;3.28;2.17;;;21.00;94.50;;;;;;5051517;28;20191;-73
2022/09/11 12:47:32;;;;;;;4.72;2.28;;;21.00;94.80;;;;;;5051804;28;20082;-74
2022/09/11 12:50:03;;;;;;;10.00;4.43;;;21.10;94.90;;;;;;5051640;28;20041;-74
2022/09/11 12:52:53;;;;;;;4.55;1.90;;;21.30;94.30;;;;;;5051262;28;20051;-74
2022/09/11 12:55:32;;;;;;;3.28;1.95;;;21.40;93.90;;;;;;5050975;28;20459;-74